Time;durP1;ratioP1;P1;durP2;ratioP2;P2;SDS_P1;SDS_P2;PMS_P1;PMS_P2;Temp;Humidity;BMP_temperature;BMP_pressure;BME280_temperature;BME280_humidity;BME280_pressure;Samples;Min_cycle;Max_cycle;Signal;HPM_P1;HPM_P2
2022/02/27 00:01:59;;;;;;;16.73;6.50;;;;;;;5.15;49.64;96606.88;5049287;28;20028;-70
2022/02/27 00:04:25;;;;;;;19.33;7.18;;;;;;;5.18;49.65;96609.88;5051088;28;20053;-70
2022/02/27 00:06:51;;;;;;;22.50;7.45;;;;;;;5.12;49.98;96613.44;5050849;28;20557;-72
2022/02/27 00:09:17;;;;;;;14.73;7.70;;;;;;;5.30;49.88;96627.50;5050175;28;20101;-72
2022/02/27 00:11:42;;;;;;;20.25;7.32;;;;;;;5.17;49.90;96608.28;5050377;28;20470;-71
2022/02/27 00:14:08;;;;;;;22.27;8.65;;;;;;;5.15;50.01;96615.59;5050258;28;20021;-70
2022/02/27 00:16:33;;;;;;;24.63;7.68;;;;;;;5.10;49.92;96614.69;5050785;28;20029;-70
2022/02/27 00:18:59;;;;;;;23.40;8.98;;;;;;;5.00;49.80;96619.75;5050509;28;20108;-71
2022/02/27 00:21:24;;;;;;;29.35;8.65;;;;;;;4.98;49.92;96622.63;5050592;28;20063;-70
2022/02/27 00:23:50;;;;;;;17.88;8.77;;;;;;;4.97;50.29;96615.75;5050726;28;20029;-71
2022/02/27 00:26:15;;;;;;;19.58;8.57;;;;;;;5.06;50.11;96646.00;5047905;28;20043;-72
2022/02/27 00:28:41;;;;;;;23.02;9.02;;;;;;;5.01;50.17;96631.91;5048868;28;20044;-72
2022/02/27 00:31:07;;;;;;;22.55;9.57;;;;;;;5.01;50.45;96642.44;5050650;28;20539;-72
2022/02/27 00:33:32;;;;;;;27.42;10.88;;;;;;;4.79;50.83;96631.69;5049175;28;20028;-71
2022/02/27 00:35:57;;;;;;;21.38;9.07;;;;;;;4.68;50.77;96604.31;5050499;28;20462;-70
2022/02/27 00:38:23;;;;;;;25.48;8.93;;;;;;;4.39;51.30;96524.38;5048779;28;20033;-70
2022/02/27 00:40:48;;;;;;;23.67;8.98;;;;;;;5.13;51.29;96608.97;5049745;28;20071;-71
2022/02/27 00:43:14;;;;;;;16.23;9.05;;;;;;;5.24;50.95;96576.47;5048944;28;20044;-71
2022/02/27 00:45:39;;;;;;;25.20;9.20;;;;;;;5.58;49.87;96585.28;5050017;28;20052;-70
2022/02/27 00:48:04;;;;;;;20.88;10.23;;;;;;;6.12;49.46;96625.34;5050420;28;20030;-71
2022/02/27 00:50:30;;;;;;;22.33;9.93;;;;;;;6.35;48.81;96624.41;5049484;28;20032;-70
2022/02/27 00:52:55;;;;;;;20.60;8.38;;;;;;;6.40;48.93;96619.19;5050367;28;20334;-70
2022/02/27 00:55:21;;;;;;;27.05;10.13;;;;;;;6.45;48.46;96611.34;5048450;28;20091;-70
2022/02/27 00:57:46;;;;;;;27.55;8.93;;;;;;;6.50;47.93;96619.34;5065622;28;20024;-70
2022/02/27 01:00:12;;;;;;;18.25;8.05;;;;;;;6.38;47.82;96613.31;5050017;28;20029;-71
2022/02/27 01:02:38;;;;;;;20.77;8.43;;;;;;;6.32;48.06;96609.00;5048408;28;20068;-69
2022/02/27 01:05:04;;;;;;;22.92;8.43;;;;;;;6.47;48.11;96597.88;5049786;28;20029;-70
2022/02/27 01:07:29;;;;;;;17.50;8.23;;;;;;;6.80;47.36;96622.66;5049687;28;20036;-71
2022/02/27 01:09:55;;;;;;;16.42;6.88;;;;;;;6.44;47.64;96603.63;5049515;28;20373;-70
2022/02/27 01:12:20;;;;;;;19.45;7.50;;;;;;;6.73;47.75;96625.47;5049788;28;20106;-70
2022/02/27 01:14:46;;;;;;;16.30;6.90;;;;;;;6.43;47.48;96586.19;5048887;28;20535;-71
2022/02/27 01:17:12;;;;;;;15.57;6.50;;;;;;;6.44;46.93;96606.28;5050380;28;20057;-70
2022/02/27 01:19:38;;;;;;;18.50;7.68;;;;;;;6.33;47.46;96615.09;5048764;28;20063;-69
2022/02/27 01:22:04;;;;;;;20.45;7.60;;;;;;;6.04;47.53;96591.41;5050093;28;20020;-72
2022/02/27 01:24:30;;;;;;;18.42;7.07;;;;;;;5.96;47.93;96608.44;5049670;28;20477;-72
2022/02/27 01:26:55;;;;;;;14.68;6.63;;;;;;;5.78;48.57;96595.38;5048493;28;20053;-70
2022/02/27 01:29:21;;;;;;;20.83;7.65;;;;;;;5.71;48.34;96600.84;5049701;28;20366;-72
2022/02/27 01:31:46;;;;;;;23.55;7.35;;;;;;;5.66;49.10;96608.66;5048267;28;20444;-72
2022/02/27 01:34:12;;;;;;;19.48;6.63;;;;;;;5.57;49.34;96606.63;5050189;28;20497;-71
2022/02/27 01:36:37;;;;;;;16.55;7.55;;;;;;;5.50;49.52;96606.78;5049973;28;20059;-70
2022/02/27 01:39:03;;;;;;;18.40;6.35;;;;;;;5.47;49.47;96610.66;5053498;28;20036;-70
2022/02/27 01:41:28;;;;;;;19.98;7.05;;;;;;;5.43;49.27;96614.84;5052662;28;20499;-71
2022/02/27 01:43:54;;;;;;;15.35;6.65;;;;;;;5.46;49.61;96605.63;5053467;28;20027;-70
2022/02/27 01:46:19;;;;;;;18.30;7.00;;;;;;;5.69;50.18;96612.69;5052139;28;20104;-71
2022/02/27 01:48:45;;;;;;;21.77;6.13;;;;;;;5.76;50.32;96599.31;5053172;28;20035;-71
2022/02/27 01:51:11;;;;;;;19.35;6.25;;;;;;;5.84;50.11;96596.31;5053345;28;20064;-71
2022/02/27 01:53:37;;;;;;;13.82;5.97;;;;;;;6.06;49.61;96602.53;5051989;28;20037;-71
2022/02/27 01:56:03;;;;;;;15.40;6.20;;;;;;;6.08;50.04;96610.19;5051820;28;20067;-71
2022/02/27 01:58:30;;;;;;;18.27;6.88;;;;;;;5.99;49.80;96613.25;5053089;28;20102;-72
2022/02/27 02:00:57;;;;;;;17.10;6.65;;;;;;;6.04;49.60;96604.63;5053336;28;20036;-71
2022/02/27 02:03:23;;;;;;;17.15;6.93;;;;;;;5.82;49.85;96574.59;5053424;28;20112;-71
2022/02/27 02:05:48;;;;;;;15.13;6.20;;;;;;;5.82;49.39;96608.94;5051860;28;20094;-70
2022/02/27 02:08:14;;;;;;;19.90;6.80;;;;;;;5.65;49.67;96574.59;5051796;28;20590;-70
2022/02/27 02:10:43;;;;;;;20.67;6.70;;;;;;;5.70;49.95;96593.94;5072724;28;20048;-71
2022/02/27 02:13:09;;;;;;;19.85;6.95;;;;;;;5.62;50.01;96596.97;5052742;28;20096;-72
2022/02/27 02:15:35;;;;;;;19.30;7.05;;;;;;;5.45;50.52;96585.56;5052841;28;20030;-70
2022/02/27 02:18:00;;;;;;;18.13;6.70;;;;;;;5.42;50.41;96591.31;5052959;28;20024;-73
2022/02/27 02:20:26;;;;;;;23.48;7.40;;;;;;;5.31;50.65;96584.25;5051199;28;20028;-72
2022/02/27 02:22:51;;;;;;;18.27;7.47;;;;;;;5.21;50.92;96580.38;5052553;28;20496;-70
2022/02/27 02:25:17;;;;;;;9.50;6.38;;;;;;;5.30;51.46;96594.00;5052184;28;20025;-70
2022/02/27 02:27:42;;;;;;;19.08;7.72;;;;;;;5.27;51.30;96593.66;5052571;28;20028;-72
2022/02/27 02:30:09;;;;;;;22.17;8.23;;;;;;;5.02;50.97;96583.41;5052387;28;20028;-72
2022/02/27 02:32:48;;;;;;;19.63;7.38;;;;;;;5.00;52.10;96588.09;5051308;28;20021;-72
2022/02/27 02:35:14;;;;;;;19.42;7.32;;;;;;;5.01;51.72;96579.97;5051225;28;20061;-70
2022/02/27 02:37:39;;;;;;;23.40;8.00;;;;;;;4.88;52.49;96580.22;5051158;28;20080;-70
2022/02/27 02:40:05;;;;;;;21.90;7.80;;;;;;;4.73;53.14;96577.28;5050629;28;20213;-70
2022/02/27 02:42:31;;;;;;;24.52;8.10;;;;;;;4.76;52.89;96566.25;5052204;28;20033;-71
2022/02/27 02:44:56;;;;;;;15.57;7.55;;;;;;;4.82;52.91;96570.63;5067814;28;20048;-70
2022/02/27 02:47:22;;;;;;;19.50;7.60;;;;;;;4.86;52.90;96572.56;5052225;28;20025;-70
2022/02/27 02:49:47;;;;;;;19.30;7.80;;;;;;;4.41;53.73;96570.53;5052248;28;20025;-70
2022/02/27 02:52:15;;;;;;;23.05;7.95;;;;;;;4.80;53.34;96572.66;5052429;28;20021;-70
2022/02/27 02:54:41;;;;;;;23.10;8.15;;;;;;;4.78;53.25;96570.28;5067505;28;20033;-70
2022/02/27 02:57:06;;;;;;;24.42;8.05;;;;;;;4.70;53.02;96557.44;5050008;28;20044;-70
2022/02/27 02:59:31;;;;;;;19.83;8.30;;;;;;;4.85;53.17;96570.94;5050348;28;20033;-70
2022/02/27 03:01:57;;;;;;;16.05;7.65;;;;;;;4.56;53.13;96540.28;5050653;28;20044;-71
2022/02/27 03:04:22;;;;;;;22.20;9.07;;;;;;;4.53;53.27;96525.72;5052004;28;20044;-71
2022/02/27 03:06:48;;;;;;;16.90;7.82;;;;;;;3.97;54.38;96507.88;5052068;28;20047;-71
2022/02/27 03:09:13;;;;;;;23.17;8.60;;;;;;;4.49;54.00;96561.47;5051702;28;20033;-71
2022/02/27 03:11:39;;;;;;;20.88;8.60;;;;;;;4.38;54.16;96549.91;5051210;28;20037;-71
2022/02/27 03:14:04;;;;;;;19.98;8.57;;;;;;;4.36;54.43;96556.44;5051875;28;20439;-71
2022/02/27 03:16:30;;;;;;;14.93;8.43;;;;;;;4.54;54.40;96553.69;5050431;28;20116;-71
2022/02/27 03:18:55;;;;;;;16.67;7.75;;;;;;;4.47;54.83;96553.00;5051644;28;20064;-71
2022/02/27 03:21:21;;;;;;;21.90;8.75;;;;;;;4.28;54.85;96543.63;5051557;28;20040;-71
2022/02/27 03:23:49;;;;;;;15.38;8.38;;;;;;;4.53;54.24;96565.25;5050467;28;20032;-71
2022/02/27 03:26:16;;;;;;;18.60;8.50;;;;;;;4.53;53.83;96552.06;5051162;28;20051;-71
2022/02/27 03:28:41;;;;;;;18.27;8.35;;;;;;;4.08;55.51;96552.66;5051180;28;20120;-71
2022/02/27 03:31:06;;;;;;;18.88;8.32;;;;;;;4.35;54.53;96545.13;5051527;28;20043;-71
2022/02/27 03:33:32;;;;;;;16.13;8.70;;;;;;;4.49;54.64;96568.56;5051574;28;20029;-71
2022/02/27 03:35:57;;;;;;;24.55;9.13;;;;;;;4.58;54.25;96570.63;5049310;28;20112;-71
2022/02/27 03:38:22;;;;;;;27.10;9.23;;;;;;;4.41;54.67;96573.16;5050444;28;20381;-71
2022/02/27 03:40:48;;;;;;;18.80;8.82;;;;;;;4.52;54.45;96560.22;5050499;28;20029;-71
2022/02/27 03:43:13;;;;;;;23.23;9.93;;;;;;;4.60;54.12;96580.94;5051350;28;20415;-70
2022/02/27 03:45:39;;;;;;;20.67;8.98;;;;;;;4.52;54.04;96568.94;5051128;28;20082;-70
2022/02/27 03:48:04;;;;;;;27.42;9.05;;;;;;;4.43;54.03;96557.13;5049998;28;20525;-71
2022/02/27 03:50:30;;;;;;;15.98;8.90;;;;;;;4.48;54.21;96564.34;5050951;28;20182;-71
2022/02/27 03:52:55;;;;;;;24.95;8.75;;;;;;;4.55;53.85;96580.81;5050040;28;20025;-71
2022/02/27 03:55:21;;;;;;;15.00;8.82;;;;;;;4.55;53.81;96571.09;5049173;28;20397;-70
2022/02/27 03:57:46;;;;;;;19.90;8.95;;;;;;;4.49;53.94;96572.00;5050753;28;20033;-70
2022/02/27 04:00:16;;;;;;;26.88;9.57;;;;;;;4.41;53.98;96562.63;5048902;28;20020;-71
2022/02/27 04:02:46;;;;;;;21.98;9.48;;;;;;;4.47;53.67;96563.53;5051382;28;20025;-71
2022/02/27 04:05:16;;;;;;;21.10;8.35;;;;;;;4.33;54.06;96567.44;5050987;28;20041;-70
2022/02/27 04:07:42;;;;;;;25.08;8.95;;;;;;;4.29;53.90;96558.38;5049598;28;20037;-71
2022/02/27 04:10:08;;;;;;;18.67;8.50;;;;;;;4.18;53.74;96538.91;5065962;28;20035;-71
2022/02/27 04:12:33;;;;;;;20.25;9.43;;;;;;;4.29;53.70;96561.00;5050451;28;20035;-70
2022/02/27 04:14:58;;;;;;;21.23;9.02;;;;;;;4.05;54.02;96534.69;5050966;28;20096;-70
2022/02/27 04:17:24;;;;;;;21.85;9.00;;;;;;;4.11;53.89;96546.94;5049444;28;20033;-70
2022/02/27 04:19:49;;;;;;;32.05;10.63;;;;;;;4.28;53.22;96576.03;5050440;28;20033;-71
2022/02/27 04:22:15;;;;;;;26.50;9.27;;;;;;;4.16;53.99;96562.06;5050802;28;20032;-71
2022/02/27 04:24:40;;;;;;;18.80;9.25;;;;;;;4.19;53.60;96564.22;5050821;28;20031;-70
2022/02/27 04:27:05;;;;;;;27.35;9.93;;;;;;;4.06;53.87;96556.56;5050193;28;20077;-70
2022/02/27 04:29:31;;;;;;;17.30;8.90;;;;;;;4.06;54.25;96551.28;5050474;28;20035;-71
2022/02/27 04:31:56;;;;;;;25.92;10.20;;;;;;;4.05;54.38;96570.75;5050580;28;20033;-70
2022/02/27 04:34:22;;;;;;;25.92;9.82;;;;;;;4.01;54.64;96566.97;5050724;28;20421;-70
2022/02/27 04:36:47;;;;;;;14.70;8.70;;;;;;;3.97;54.69;96552.63;5050686;28;20064;-71
2022/02/27 04:39:12;;;;;;;16.98;8.10;;;;;;;4.17;55.00;96574.19;5050566;28;20033;-70
2022/02/27 04:41:40;;;;;;;21.38;9.20;;;;;;;4.14;54.64;96556.19;5050100;28;20488;-70
2022/02/27 04:44:05;;;;;;;19.45;9.40;;;;;;;4.12;54.67;96555.63;5050293;28;20029;-70
2022/02/27 04:46:31;;;;;;;27.35;10.02;;;;;;;3.98;54.71;96520.81;5049262;28;20036;-70
2022/02/27 04:48:56;;;;;;;30.85;9.88;;;;;;;4.17;54.31;96553.91;5050303;28;20086;-70
2022/02/27 04:51:21;;;;;;;21.90;9.80;;;;;;;4.01;54.47;96538.00;5050317;28;20030;-70
2022/02/27 04:53:49;;;;;;;24.30;9.55;;;;;;;3.95;54.14;96528.38;5050554;28;20458;-70
2022/02/27 04:56:15;;;;;;;22.70;8.98;;;;;;;4.17;54.32;96568.91;5049867;28;20116;-71
2022/02/27 04:58:40;;;;;;;22.00;9.38;;;;;;;4.11;54.13;96568.00;5048345;28;20137;-70
2022/02/27 05:01:05;;;;;;;30.88;10.60;;;;;;;3.97;54.29;96547.38;5050386;28;20032;-71
2022/02/27 05:03:31;;;;;;;20.35;9.23;;;;;;;3.87;54.29;96526.88;5050354;28;20032;-70
2022/02/27 05:05:56;;;;;;;25.00;9.32;;;;;;;4.01;54.31;96559.06;5050423;28;20025;-70
2022/02/27 05:08:22;;;;;;;22.70;9.15;;;;;;;3.81;54.01;96525.16;5050145;28;20072;-70
2022/02/27 05:10:47;;;;;;;23.00;9.35;;;;;;;3.99;54.20;96550.56;5050339;28;20126;-71
2022/02/27 05:13:12;;;;;;;22.35;9.27;;;;;;;3.79;54.06;96521.97;5053637;28;20064;-71
2022/02/27 05:15:38;;;;;;;21.65;10.50;;;;;;;3.92;53.94;96551.47;5054034;28;20032;-70
2022/02/27 05:18:03;;;;;;;15.93;9.60;;;;;;;3.77;54.33;96542.41;5052949;28;20033;-70
2022/02/27 05:20:29;;;;;;;15.43;8.55;;;;;;;3.95;54.33;96571.31;5053766;28;20043;-71
2022/02/27 05:22:54;;;;;;;22.90;9.38;;;;;;;3.86;54.97;96559.50;5054161;28;20116;-70
2022/02/27 05:25:21;;;;;;;20.48;8.82;;;;;;;3.99;54.75;96564.53;5054073;28;20071;-71
2022/02/27 05:27:48;;;;;;;27.65;9.38;;;;;;;4.07;54.56;96560.78;5053467;28;20029;-71
2022/02/27 05:30:14;;;;;;;23.85;9.15;;;;;;;4.04;54.35;96572.56;5053522;28;20031;-72
2022/02/27 05:32:39;;;;;;;24.80;10.45;;;;;;;3.93;54.67;96549.66;5053685;28;20128;-72
2022/02/27 05:35:06;;;;;;;20.98;9.43;;;;;;;3.95;53.95;96579.19;5053651;28;20399;-71
2022/02/27 05:37:32;;;;;;;24.13;10.23;;;;;;;3.92;54.25;96577.00;5053523;28;20063;-71
2022/02/27 05:39:57;;;;;;;24.02;9.20;;;;;;;3.76;54.31;96557.41;5053638;28;20059;-71
2022/02/27 05:42:23;;;;;;;26.88;10.68;;;;;;;3.79;54.26;96564.88;5051359;28;20036;-72
2022/02/27 05:44:49;;;;;;;25.40;10.38;;;;;;;3.82;54.29;96568.88;5053489;28;20443;-71
2022/02/27 05:47:14;;;;;;;25.67;11.10;;;;;;;3.73;54.83;96568.38;5052313;28;20040;-72
2022/02/27 05:49:39;;;;;;;21.88;11.20;;;;;;;3.73;54.31;96578.91;5051989;28;20053;-70
2022/02/27 05:52:05;;;;;;;26.50;11.35;;;;;;;3.59;55.12;96591.47;5052016;28;20071;-72
2022/02/27 05:54:31;;;;;;;30.10;11.52;;;;;;;3.74;54.71;96592.88;5053284;28;20033;-71
2022/02/27 05:56:56;;;;;;;24.67;11.75;;;;;;;3.70;54.88;96583.84;5051540;28;20049;-72
2022/02/27 05:59:22;;;;;;;23.55;10.15;;;;;;;3.79;54.61;96601.72;5052897;28;20029;-70
2022/02/27 06:01:49;;;;;;;20.77;11.02;;;;;;;3.82;54.67;96605.72;5052983;28;20386;-70
2022/02/27 06:04:17;;;;;;;26.50;11.05;;;;;;;3.85;54.61;96610.53;5053151;28;20029;-70
2022/02/27 06:06:43;;;;;;;23.27;10.63;;;;;;;3.71;54.73;96582.81;5053356;28;20040;-70
2022/02/27 06:09:09;;;;;;;29.38;12.13;;;;;;;3.73;54.70;96592.06;5052926;28;20025;-70
2022/02/27 06:11:35;;;;;;;25.02;10.60;;;;;;;3.83;54.22;96607.31;5052554;28;20481;-70
2022/02/27 06:14:01;;;;;;;24.75;10.40;;;;;;;3.83;54.45;96600.22;5052890;28;20604;-71
2022/02/27 06:16:26;;;;;;;27.02;11.25;;;;;;;3.74;54.74;96591.06;5052984;28;20032;-71
2022/02/27 06:18:52;;;;;;;25.33;11.35;;;;;;;3.94;54.97;96611.00;5052478;28;20520;-72
2022/02/27 06:21:18;;;;;;;24.05;10.65;;;;;;;4.00;54.79;96610.91;5052798;28;20099;-71
2022/02/27 06:23:43;;;;;;;25.30;11.27;;;;;;;4.01;54.72;96603.81;5052052;28;20036;-71
2022/02/27 06:26:09;;;;;;;23.98;11.85;;;;;;;3.96;55.02;96619.50;5052462;28;20082;-72
2022/02/27 06:28:34;;;;;;;20.65;11.65;;;;;;;3.77;55.44;96581.91;5050939;28;20114;-70
2022/02/27 06:30:59;;;;;;;16.92;9.73;;;;;;;4.13;54.73;96610.69;5067538;28;20064;-70
2022/02/27 06:33:25;;;;;;;20.70;10.57;;;;;;;4.07;54.46;96576.56;5053308;28;20032;-72
2022/02/27 06:35:50;;;;;;;23.17;9.00;;;;;;;4.15;54.49;96605.22;5052739;28;20037;-70
2022/02/27 06:38:15;;;;;;;19.02;10.25;;;;;;;4.16;54.70;96591.03;5052674;28;20118;-71
2022/02/27 06:40:41;;;;;;;19.75;10.25;;;;;;;4.41;54.10;96627.69;5052280;28;20446;-72
2022/02/27 06:43:07;;;;;;;20.55;10.63;;;;;;;4.48;54.26;96632.84;5052015;28;20029;-71
2022/02/27 06:45:33;;;;;;;19.85;10.45;;;;;;;4.68;54.17;96625.41;5067462;28;20033;-70
2022/02/27 06:47:59;;;;;;;19.08;9.80;;;;;;;5.01;53.75;96621.34;5051079;28;20031;-71
2022/02/27 06:50:25;;;;;;;17.02;9.35;;;;;;;4.99;53.70;96579.41;5052060;28;20025;-71
2022/02/27 06:52:51;;;;;;;17.58;8.98;;;;;;;5.44;52.85;96620.91;5052182;28;20055;-71
2022/02/27 06:55:16;;;;;;;16.70;9.48;;;;;;;5.31;52.25;96602.72;5052072;28;20025;-71
2022/02/27 06:57:46;;;;;;;19.15;8.68;;;;;;;5.51;52.55;96629.50;5051649;28;20105;-71
2022/02/27 07:00:16;;;;;;;13.63;9.48;;;;;;;5.30;51.93;96609.03;5050543;28;20043;-71
2022/02/27 07:02:42;;;;;;;17.27;9.43;;;;;;;5.40;52.35;96627.69;5052190;28;20029;-71
2022/02/27 07:05:08;;;;;;;19.98;10.68;;;;;;;5.34;52.19;96616.25;5052165;28;20075;-70
2022/02/27 07:07:34;;;;;;;17.48;9.73;;;;;;;5.25;52.21;96611.56;5052014;28;20035;-71
2022/02/27 07:10:02;;;;;;;18.27;10.38;;;;;;;5.16;52.32;96595.28;5050287;28;20462;-71
2022/02/27 07:12:32;;;;;;;19.60;10.32;;;;;;;5.26;52.56;96626.34;5051382;28;20093;-71
2022/02/27 07:14:57;;;;;;;17.90;10.02;;;;;;;4.99;52.59;96594.44;5051728;28;20470;-71
2022/02/27 07:17:26;;;;;;;25.90;11.05;;;;;;;5.04;52.49;96600.59;5067135;28;20060;-71
2022/02/27 07:19:52;;;;;;;19.30;10.98;;;;;;;4.85;54.19;96641.31;5050374;28;20036;-71
2022/02/27 07:22:18;;;;;;;15.30;10.82;;;;;;;5.05;54.25;96649.66;5051625;28;20025;-71
2022/02/27 07:24:44;;;;;;;14.43;10.73;;;;;;;4.87;54.45;96637.44;5051810;28;20032;-71
2022/02/27 07:27:09;;;;;;;17.75;10.45;;;;;;;5.14;54.02;96647.50;5068362;28;20492;-71
2022/02/27 07:29:35;;;;;;;20.65;12.07;;;;;;;5.13;53.95;96635.34;5051422;28;20621;-71
2022/02/27 07:32:00;;;;;;;22.08;12.13;;;;;;;4.71;54.69;96648.69;5050180;28;20025;-73
2022/02/27 07:34:27;;;;;;;16.88;11.20;;;;;;;5.05;54.11;96651.50;5050386;28;20032;-71
2022/02/27 07:36:55;;;;;;;22.67;10.73;;;;;;;5.33;53.90;96638.38;5051546;28;20029;-71
2022/02/27 07:39:22;;;;;;;15.43;11.13;;;;;;;5.46;53.62;96645.22;5051305;28;20049;-71
2022/02/27 07:41:47;;;;;;;17.48;10.35;;;;;;;5.51;53.51;96631.31;5050870;28;20037;-72
2022/02/27 07:44:13;;;;;;;21.08;10.30;;;;;;;6.03;52.05;96655.81;5049747;28;20025;-72
2022/02/27 07:46:38;;;;;;;18.77;11.27;;;;;;;5.27;53.52;96649.06;5051362;28;20031;-72
2022/02/27 07:49:04;;;;;;;16.40;10.32;;;;;;;5.49;52.82;96634.22;5051105;28;20032;-72
2022/02/27 07:51:30;;;;;;;14.00;10.60;;;;;;;5.43;52.85;96672.91;5051193;28;20033;-72
2022/02/27 07:53:55;;;;;;;21.60;11.43;;;;;;;5.54;53.42;96668.63;5051239;28;20029;-71
2022/02/27 07:56:21;;;;;;;18.15;9.93;;;;;;;5.67;53.13;96664.91;5050729;28;20029;-70
2022/02/27 07:58:47;;;;;;;16.73;10.32;;;;;;;6.04;51.78;96636.31;5050674;28;20444;-70
2022/02/27 08:01:12;;;;;;;16.92;11.00;;;;;;;6.18;51.09;96679.06;5049893;28;20037;-70
2022/02/27 08:03:38;;;;;;;15.82;9.55;;;;;;;5.44;52.64;96652.59;5051042;28;20076;-71
2022/02/27 08:06:03;;;;;;;13.68;9.82;;;;;;;5.67;52.58;96647.22;5051067;28;20028;-71
2022/02/27 08:08:29;;;;;;;18.42;9.60;;;;;;;5.76;52.66;96667.97;5050740;28;20029;-71
2022/02/27 08:10:54;;;;;;;14.50;9.98;;;;;;;5.83;52.06;96663.34;5050830;28;20469;-71
2022/02/27 08:13:19;;;;;;;19.13;10.60;;;;;;;5.46;52.58;96653.13;5050065;28;20033;-69
2022/02/27 08:15:45;;;;;;;15.50;9.68;;;;;;;5.99;52.32;96646.78;5050681;28;20036;-68
2022/02/27 08:18:10;;;;;;;21.67;9.75;;;;;;;6.21;51.86;96658.25;5050861;28;20032;-68
2022/02/27 08:20:36;;;;;;;16.33;9.75;;;;;;;7.02;51.32;96664.00;5050404;28;20028;-68
2022/02/27 08:23:01;;;;;;;16.88;10.18;;;;;;;7.30;50.85;96668.31;5050710;28;20048;-67
2022/02/27 08:25:27;;;;;;;17.13;9.70;;;;;;;8.02;47.75;96666.50;5050681;28;20110;-71
2022/02/27 08:27:52;;;;;;;19.60;9.88;;;;;;;7.42;47.06;96641.75;5049483;28;20086;-71
2022/02/27 08:30:18;;;;;;;12.20;8.82;;;;;;;7.25;47.50;96655.03;5050154;28;20497;-72
2022/02/27 08:32:49;;;;;;;18.17;9.27;;;;;;;7.47;47.13;96641.81;5051225;28;20075;-73
2022/02/27 08:35:15;;;;;;;14.35;8.95;;;;;;;7.06;48.19;96679.38;5049490;28;20025;-78
2022/02/27 08:37:40;;;;;;;13.50;9.25;;;;;;;6.58;49.40;96665.72;5050703;28;20419;-73
2022/02/27 08:40:06;;;;;;;11.88;9.40;;;;;;;6.21;49.28;96649.53;5050097;28;20470;-72
2022/02/27 08:42:32;;;;;;;13.60;9.10;;;;;;;6.30;49.74;96647.31;5048585;28;20032;-70
2022/02/27 08:44:57;;;;;;;11.90;8.55;;;;;;;6.11;49.99;96641.44;5050413;28;20078;-74
2022/02/27 08:47:22;;;;;;;15.15;8.52;;;;;;;6.19;48.60;96633.09;5051340;28;20063;-73
2022/02/27 08:49:48;;;;;;;11.48;8.52;;;;;;;6.29;49.27;96635.91;5069696;28;20071;-74
2022/02/27 08:52:13;;;;;;;11.07;8.55;;;;;;;6.21;49.26;96633.69;5054310;28;20025;-76
2022/02/27 08:54:39;;;;;;;14.20;8.75;;;;;;;6.57;48.41;96629.75;5054481;28;20067;-71
2022/02/27 08:57:05;;;;;;;11.25;8.00;;;;;;;6.94;47.49;96623.91;5070935;28;20520;-69
2022/02/27 08:59:31;;;;;;;9.73;7.88;;;;;;;6.71;48.05;96652.19;5053759;28;20025;-70
2022/02/27 09:01:56;;;;;;;11.73;7.32;;;;;;;6.54;47.47;96658.50;5054159;28;20416;-70
2022/02/27 09:04:22;;;;;;;9.27;7.05;;;;;;;6.55;46.82;96663.53;5052947;28;20123;-74
2022/02/27 09:06:48;;;;;;;10.90;6.45;;;;;;;6.66;46.08;96630.16;5054044;28;20087;-72
2022/02/27 09:09:15;;;;;;;11.25;6.65;;;;;;;6.73;45.99;96658.00;5054042;28;20024;-73
2022/02/27 09:11:41;;;;;;;8.38;6.25;;;;;;;6.17;45.38;96637.81;5053581;28;20389;-72
2022/02/27 09:14:06;;;;;;;11.63;5.18;;;;;;;6.53;43.96;96647.13;5053614;28;20107;-73
2022/02/27 09:16:32;;;;;;;16.38;6.15;;;;;;;6.44;44.13;96635.34;5052647;28;20055;-73
2022/02/27 09:18:58;;;;;;;12.13;5.82;;;;;;;6.19;44.36;96606.69;5053933;28;20063;-73
2022/02/27 09:21:23;;;;;;;7.30;6.32;;;;;;;6.64;44.03;96651.53;5053967;28;20052;-72
2022/02/27 09:23:49;;;;;;;7.10;5.45;;;;;;;6.75;43.64;96637.41;5053832;28;20025;-72
2022/02/27 09:26:14;;;;;;;8.95;5.43;;;;;;;6.16;43.91;96649.44;5053771;28;20104;-71
2022/02/27 09:28:40;;;;;;;7.75;5.97;;;;;;;6.31;43.92;96628.56;5053072;28;20021;-71
2022/02/27 09:31:05;;;;;;;8.57;5.68;;;;;;;6.71;42.99;96636.31;5053599;28;20033;-72
2022/02/27 09:33:30;;;;;;;6.50;4.45;;;;;;;6.26;42.25;96623.19;5052668;28;20370;-71
2022/02/27 09:35:56;;;;;;;5.75;5.07;;;;;;;6.46;41.36;96652.59;5053954;28;20061;-71
2022/02/27 09:38:22;;;;;;;7.47;4.10;;;;;;;6.41;39.46;96638.50;5053164;28;20037;-71
2022/02/27 09:40:50;;;;;;;5.95;4.57;;;;;;;6.64;40.65;96638.31;5052002;28;20082;-72
2022/02/27 09:43:19;;;;;;;5.90;3.63;;;;;;;6.36;40.32;96651.63;5051927;28;20021;-71
2022/02/27 09:45:47;;;;;;;8.20;5.03;;;;;;;7.03;39.91;96633.03;5053374;28;20029;-71
2022/02/27 09:48:13;;;;;;;7.20;4.50;;;;;;;6.80;40.82;96634.03;5053581;28;20055;-71
2022/02/27 09:50:40;;;;;;;7.20;4.25;;;;;;;7.38;38.77;96623.97;5053162;28;20021;-71
2022/02/27 09:53:09;;;;;;;6.32;4.32;;;;;;;7.46;37.85;96624.31;5053582;28;20604;-71
2022/02/27 09:55:38;;;;;;;7.10;3.70;;;;;;;7.10;38.14;96656.66;5052478;28;20123;-72
2022/02/27 09:58:04;;;;;;;7.10;4.70;;;;;;;7.93;37.10;96655.53;5051041;28;20094;-72
2022/02/27 10:00:30;;;;;;;7.38;4.35;;;;;;;7.73;37.31;96648.19;5052422;28;20032;-72
2022/02/27 10:03:12;;;;;;;7.45;4.63;;;;;;;7.56;37.72;96642.16;5051970;28;20021;-68
2022/02/27 10:05:39;;;;;;;5.65;4.40;;;;;;;7.77;36.53;96632.59;5053285;28;20032;-69
2022/02/27 10:08:07;;;;;;;6.47;3.90;;;;;;;7.69;36.14;96646.28;5053249;28;20144;-69
2022/02/27 10:10:33;;;;;;;5.63;4.05;;;;;;;7.11;36.90;96645.84;5051446;28;20496;-69
2022/02/27 10:12:58;;;;;;;6.47;3.72;;;;;;;7.38;36.85;96639.84;5052605;28;20033;-69
2022/02/27 10:15:24;;;;;;;6.53;4.50;;;;;;;7.69;36.16;96617.97;5053064;28;20556;-69
2022/02/27 10:17:51;;;;;;;8.93;4.90;;;;;;;8.17;36.24;96632.19;5053081;28;20033;-69
2022/02/27 10:20:18;;;;;;;5.03;4.53;;;;;;;7.30;36.87;96620.69;5068218;28;20029;-71
2022/02/27 10:22:47;;;;;;;5.90;4.47;;;;;;;8.13;35.89;96638.22;5052917;28;20740;-70
2022/02/27 10:25:28;;;;;;;6.63;4.95;;;;;;;8.16;36.98;96635.09;5052939;28;20452;-71
2022/02/27 10:27:59;;;;;;;7.07;5.65;;;;;;;8.21;37.27;96643.88;5050906;28;20043;-70
2022/02/27 10:30:30;;;;;;;7.20;5.80;;;;;;;7.06;39.48;96626.44;5050974;28;20079;-71
2022/02/27 10:32:56;;;;;;;7.68;6.53;;;;;;;7.54;39.18;96628.38;5051185;28;20381;-70
2022/02/27 10:35:50;;;;;;;7.63;6.30;;;;;;;8.38;38.07;96622.59;5051301;28;20721;-71
2022/02/27 10:38:51;;;;;;;6.85;5.90;;;;;;;9.09;37.13;96635.53;5052721;28;20031;-71
2022/02/27 10:41:21;;;;;;;6.07;5.50;;;;;;;9.23;34.54;96614.63;5052535;28;20036;-70
2022/02/27 10:43:48;;;;;;;6.95;5.72;;;;;;;8.66;35.48;96610.88;5050580;28;20811;-71
2022/02/27 10:46:18;;;;;;;7.80;6.03;;;;;;;9.33;33.80;96626.09;5052545;28;20500;-72
2022/02/27 10:48:43;;;;;;;9.30;4.95;;;;;;;8.64;33.56;96636.03;5052234;28;20033;-71
2022/02/27 10:51:11;;;;;;;7.13;5.65;;;;;;;8.91;32.63;96614.75;5052149;28;20056;-71
2022/02/27 10:53:38;;;;;;;7.25;5.00;;;;;;;9.73;32.42;96623.84;5051016;28;20028;-71
2022/02/27 10:56:06;;;;;;;5.88;5.18;;;;;;;9.16;33.35;96606.09;5052423;28;20060;-71
2022/02/27 10:58:45;;;;;;;5.97;5.20;;;;;;;8.70;33.95;96606.66;5051308;28;20037;-72
2022/02/27 11:01:18;;;;;;;8.77;5.40;;;;;;;9.08;34.42;96610.03;5052189;28;20025;-76
2022/02/27 11:03:46;;;;;;;6.10;5.43;;;;;;;9.36;33.88;96614.94;5052137;28;20029;-71
2022/02/27 11:06:13;;;;;;;6.07;5.47;;;;;;;8.61;34.25;96612.69;5052214;28;20713;-71
2022/02/27 11:08:40;;;;;;;9.15;5.95;;;;;;;9.05;34.88;96597.28;5050598;28;20017;-70
2022/02/27 11:11:07;;;;;;;5.97;5.45;;;;;;;9.77;33.47;96604.44;5050067;28;20045;-72
2022/02/27 11:13:33;;;;;;;7.57;6.10;;;;;;;8.82;34.00;96564.00;5050182;28;20103;-74
2022/02/27 11:15:58;;;;;;;6.43;5.78;;;;;;;9.73;33.51;96603.38;5052030;28;20470;-71
2022/02/27 11:18:25;;;;;;;6.55;5.40;;;;;;;9.20;33.29;96578.75;5050123;28;20548;-70
2022/02/27 11:20:53;;;;;;;6.72;5.80;;;;;;;9.61;32.89;96590.31;5051714;28;20032;-72
2022/02/27 11:23:19;;;;;;;7.20;5.03;;;;;;;8.76;33.08;96575.66;5051782;28;20082;-75
2022/02/27 11:25:45;;;;;;;5.22;4.47;;;;;;;9.44;32.39;96579.13;5050386;28;20124;-72
2022/02/27 11:28:15;;;;;;;6.00;4.93;;;;;;;9.70;32.09;96574.66;5051115;28;20025;-70
2022/02/27 11:30:45;;;;;;;6.22;4.57;;;;;;;10.23;30.85;96593.88;5049578;28;20486;-70